| time (UTC) | temp F | wind direction | speed knots | gust knots | rain 1hr in | rain 24hr in | rain mn in | humidity % | barometer mb |
| 20260507231505 | 53 | 233 | 5.2 | 17.4 | 0.00 | 0.94 | 0.94 | 86 | 998.1 |
| 20260507230004 | 53 | 279 | 6.1 | 13.0 | 0.00 | 0.94 | 0.94 | 88 | 998.4 |
| 20260507224502 | 53 | 241 | 6.1 | 12.2 | 0.00 | 0.94 | 0.94 | 87 | 998.5 |
| 20260507223058 | 54 | 255 | 5.2 | 10.4 | 0.00 | 0.94 | 0.94 | 84 | 998.5 |
| 20260507221557 | 54 | 263 | 7.0 | 16.5 | 0.00 | 0.94 | 0.94 | 83 | 998.4 |
| 20260507220059 | 54 | 239 | 5.2 | 18.2 | 0.00 | 0.94 | 0.94 | 84 | 997.9 |
| 20260507214555 | 55 | 255 | 8.7 | 15.6 | 0.00 | 0.94 | 0.94 | 80 | 997.7 |
| 20260507213049 | 56 | 267 | 6.1 | 13.0 | 0.00 | 0.94 | 0.94 | 78 | 997.5 |
| 20260507211550 | 56 | 271 | 4.3 | 13.0 | 0.00 | 0.94 | 0.94 | 77 | 997.8 |
| 20260507204545 | 56 | 244 | 7.0 | 16.5 | 0.00 | 0.94 | 0.94 | 75 | 997.8 |
| 20260507203109 | 57 | 265 | 7.0 | 15.6 | 0.00 | 0.94 | 0.94 | 74 | 997.4 |
| 20260507201540 | 57 | 261 | 7.0 | 19.1 | 0.00 | 0.94 | 0.94 | 73 | 997.2 |
| 20260507200041 | 58 | 249 | 7.0 | 18.2 | 0.00 | 0.94 | 0.94 | 72 | 996.5 |
| 20260507194538 | 58 | 267 | 6.1 | 15.6 | 0.00 | 0.94 | 0.94 | 72 | 995.7 |
| 20260507193040 | 58 | 247 | 7.8 | 15.6 | 0.00 | 0.94 | 0.94 | 72 | 995.9 |
| 20260507191539 | 58 | 240 | 5.2 | 13.9 | 0.00 | 0.94 | 0.94 | 73 | 996.0 |
| 20260507190034 | 58 | 234 | 7.8 | 17.4 | 0.00 | 0.94 | 0.94 | 74 | 997.3 |
| 20260507184534 | 58 | 252 | 5.2 | 15.6 | 0.00 | 0.94 | 0.94 | 74 | 997.7 |
| 20260507183033 | 58 | 261 | 7.0 | 13.9 | 0.00 | 0.94 | 0.94 | 74 | 998.0 |
| 20260507181529 | 58 | 223 | 8.7 | 15.6 | 0.00 | 0.94 | 0.94 | 75 | 998.9 |
| 20260507180029 | 58 | 260 | 4.3 | 15.6 | 0.00 | 0.94 | 0.94 | 76 | 999.4 |
| 20260507174537 | 58 | 260 | 6.1 | 13.9 | 0.00 | 0.94 | 0.94 | 77 | 999.0 |
| 20260507173048 | 57 | 242 | 5.2 | 10.4 | 0.00 | 0.94 | 0.94 | 78 | 997.9 |
| 20260507171526 | 57 | 214 | 4.3 | 7.0 | 0.00 | 0.94 | 0.94 | 79 | 997.1 |
| 20260507170024 | 57 | 238 | 3.5 | 12.2 | 0.00 | 0.94 | 0.94 | 79 | 997.7 |
| 20260507164522 | 57 | 300 | 1.7 | 13.0 | 0.00 | 0.94 | 0.94 | 79 | 998.6 |
| 20260507163020 | 57 | 247 | 5.2 | 15.6 | 0.01 | 0.94 | 0.94 | 78 | 999.1 |
| 20260507161519 | 58 | 265 | 7.8 | 13.0 | 0.01 | 0.94 | 0.94 | 78 | 998.6 |
| 20260507160019 | 58 | 231 | 6.1 | 13.9 | 0.01 | 0.94 | 0.94 | 78 | 997.3 |
| 20260507154515 | 58 | 207 | 5.2 | 9.6 | 0.01 | 0.94 | 0.94 | 80 | 997.6 |
| 20260507153013 | 58 | 257 | 4.3 | 15.6 | 0.00 | 0.93 | 0.93 | 81 | 997.9 |
| 20260507151511 | 59 | 286 | 7.0 | 13.0 | 0.00 | 0.93 | 0.93 | 80 | 998.0 |
| 20260507150012 | 59 | 226 | 7.0 | 12.2 | 0.00 | 0.93 | 0.93 | 83 | 997.8 |
| 20260507144509 | 59 | 251 | 5.2 | 13.9 | 0.00 | 0.93 | 0.93 | 86 | 998.5 |
| 20260507143008 | 60 | 244 | 2.6 | 8.7 | 0.00 | 0.93 | 0.93 | 87 | 998.1 |
| 20260507141507 | 60 | 204 | 4.3 | 9.6 | 0.00 | 0.93 | 0.93 | 86 | 997.1 |
| 20260507140007 | 60 | 169 | 4.3 | 8.7 | 0.00 | 1.02 | 0.93 | 86 | 997.2 |
| 20260507134506 | 60 | 192 | 5.2 | 12.2 | 0.00 | 1.02 | 0.93 | 87 | 997.7 |
| 20260507133005 | 60 | 228 | 0.9 | 5.2 | 0.00 | 1.02 | 0.93 | 87 | 998.1 |
| 20260507131501 | 60 | 280 | 0.0 | 5.2 | 0.00 | 1.02 | 0.93 | 88 | 998.5 |
| 20260507130108 | 59 | 275 | 1.7 | 7.0 | 0.00 | 1.02 | 0.93 | 88 | 999.4 |
| 20260507124606 | 59 | 240 | 2.6 | 8.7 | 0.00 | 1.02 | 0.93 | 89 | 998.6 |
| 20260507123056 | 59 | 211 | 6.1 | 10.4 | 0.00 | 1.02 | 0.93 | 89 | 997.0 |
| 20260507121555 | 59 | 236 | 6.1 | 12.2 | 0.00 | 1.02 | 0.93 | 89 | 997.5 |
| 20260507120054 | 59 | 217 | 6.1 | 15.6 | 0.00 | 1.02 | 0.93 | 89 | 997.4 |
| 20260507114608 | 59 | 205 | 8.7 | 20.0 | 0.00 | 1.02 | 0.93 | 89 | 996.1 |
| 20260507113050 | 59 | 190 | 7.8 | 15.6 | 0.00 | 1.02 | 0.93 | 89 | 997.1 |
| 20260507111547 | 60 | 292 | 5.2 | 10.4 | 0.00 | 1.02 | 0.93 | 91 | 997.4 |
| 20260507110045 | 60 | 247 | 2.6 | 8.7 | 0.00 | 1.02 | 0.93 | 93 | 996.3 |
| 20260507104542 | 60 | 219 | 1.7 | 7.0 | 0.00 | 1.02 | 0.93 | 93 | 995.9 |
| 20260507103045 | 60 | 267 | 0.9 | 7.0 | 0.00 | 1.02 | 0.93 | 93 | 996.7 |
| 20260507101545 | 61 | 349 | 1.7 | 4.3 | 0.00 | 1.02 | 0.93 | 94 | 997.5 |
| 20260507100040 | 61 | 227 | 0.0 | 5.2 | 0.00 | 1.02 | 0.93 | 93 | 996.0 |
| 20260507094552 | 61 | 216 | 3.5 | 15.6 | 0.00 | 1.02 | 0.93 | 93 | 995.1 |
| 20260507093034 | 61 | 223 | 2.6 | 7.8 | 0.00 | 1.02 | 0.93 | 94 | 996.3 |
| 20260507091534 | 61 | 232 | 0.0 | 4.3 | 0.00 | 1.02 | 0.93 | 94 | 995.5 |
| 20260507090030 | 62 | 266 | 2.6 | 9.6 | 0.00 | 1.02 | 0.93 | 94 | 995.6 |
| 20260507084529 | 62 | 213 | 3.5 | 7.8 | 0.00 | 1.02 | 0.93 | 94 | 995.8 |
| 20260507083027 | 63 | 223 | 2.6 | 9.6 | 0.00 | 1.02 | 0.93 | 94 | 995.9 |
| 20260507081526 | 63 | 229 | 1.7 | 6.1 | 0.00 | 1.02 | 0.93 | 94 | 995.6 |
| 20260507080024 | 63 | 323 | 0.0 | 5.2 | 0.00 | 1.02 | 0.93 | 94 | 995.9 |
| 20260507074523 | 63 | 147 | 1.7 | 7.0 | 0.01 | 1.02 | 0.93 | 94 | 994.3 |
| 20260507073022 | 63 | 81 | 0.0 | 7.0 | 0.02 | 1.02 | 0.93 | 95 | 995.6 |
| 20260507071522 | 63 | 38 | 0.9 | 7.0 | 0.06 | 1.02 | 0.93 | 95 | 995.8 |
| 20260507070028 | 63 | 46 | 5.2 | 9.6 | 0.10 | 1.02 | 0.93 | 95 | 995.6 |
| 20260507064519 | 63 | 49 | 1.7 | 8.7 | 0.12 | 1.02 | 0.92 | 95 | 996.9 |
| 20260507063016 | 63 | 144 | 5.2 | 11.3 | 0.13 | 1.00 | 0.91 | 94 | 995.7 |
| 20260507061514 | 64 | 173 | 0.0 | 4.3 | 0.13 | 0.97 | 0.87 | 94 | 998.2 |
| 20260507060016 | 64 | 205 | 0.0 | 4.3 | 0.09 | 0.92 | 0.83 | 95 | 998.3 |
| 20260507054510 | 65 | 238 | 3.5 | 7.0 | 0.06 | 0.90 | 0.80 | 95 | 999.1 |
| 20260507053007 | 65 | 250 | 1.7 | 5.2 | 0.06 | 0.86 | 0.76 | 95 | 997.8 |
| 20260507051506 | 65 | 317 | 0.9 | 3.5 | 0.19 | 0.83 | 0.74 | 94 | 997.4 |
| 20260507050015 | 65 | 317 | 0.9 | 11.3 | 0.56 | 0.83 | 0.74 | 94 | 996.8 |
| 20260507044503 | 65 | 212 | 4.3 | 7.0 | 0.66 | 0.83 | 0.74 | 94 | 996.6 |
| 20260507043002 | 65 | 205 | 1.7 | 5.2 | 0.63 | 0.80 | 0.71 | 93 | 997.7 |
| 20260507041559 | 66 | 193 | 2.6 | 13.0 | 0.55 | 0.65 | 0.55 | 92 | 997.6 |
| 20260507040101 | 67 | 198 | 6.1 | 15.6 | 0.17 | 0.27 | 0.17 | 89 | 995.9 |
| 20260507034554 | 72 | 219 | 13.0 | 20.0 | 0.08 | 0.17 | 0.08 | 84 | 995.1 |
| 20260507033058 | 75 | 327 | 4.3 | 12.2 | 0.08 | 0.17 | 0.08 | 85 | 994.7 |
| 20260507031553 | 76 | 355 | 6.1 | 15.6 | 0.00 | 0.09 | 0.00 | 79 | 994.3 |
| 20260507030100 | 76 | 355 | 7.0 | 17.4 | 0.00 | 0.09 | 0.00 | 79 | 995.0 |
| 20260507024543 | 76 | 355 | 7.8 | 15.6 | 0.00 | 0.09 | 0.09 | 79 | 994.8 |
| 20260507023031 | 76 | 5 | 6.1 | 12.2 | 0.00 | 0.09 | 0.09 | 80 | 995.3 |
| 20260507021533 | 76 | 348 | 5.2 | 13.0 | 0.00 | 0.09 | 0.09 | 80 | 995.6 |
| 20260507020130 | 76 | 336 | 7.8 | 13.9 | 0.00 | 0.09 | 0.09 | 80 | 995.9 |
| 20260507014550 | 76 | 348 | 5.2 | 11.3 | 0.00 | 0.09 | 0.09 | 80 | 996.2 |
| 20260507013140 | 76 | 351 | 4.3 | 13.9 | 0.00 | 0.09 | 0.09 | 81 | 996.3 |
| 20260507011539 | 76 | 355 | 5.2 | 13.0 | 0.00 | 0.09 | 0.09 | 81 | 996.4 |
| 20260507010136 | 76 | 17 | 5.2 | 15.6 | 0.00 | 0.09 | 0.09 | 81 | 996.2 |
| 20260507004542 | 77 | 335 | 6.1 | 11.3 | 0.00 | 0.09 | 0.09 | 80 | 996.8 |
| 20260507003141 | 77 | 343 | 4.3 | 16.5 | 0.00 | 0.09 | 0.09 | 80 | 996.7 |
| 20260507001605 | 77 | 5 | 7.8 | 17.4 | 0.00 | 0.09 | 0.09 | 80 | 996.3 |
| 20260507000158 | 76 | 9 | 6.1 | 18.2 | 0.00 | 0.09 | 0.09 | 82 | 996.1 |